sensor_id;sensor_type;location;lat;lon;timestamp;pressure;altitude;pressure_sealevel;temperature;humidity
51067;BME280;37112;45.892;-123.962;2023-04-25T00:02:03;102310.77;;;13.00;67.36
51067;BME280;37112;45.892;-123.962;2023-04-25T00:04:39;102315.73;;;12.94;67.77
51067;BME280;37112;45.892;-123.962;2023-04-25T00:07:16;102317.09;;;12.98;68.69
51067;BME280;37112;45.892;-123.962;2023-04-25T00:09:52;102318.17;;;12.95;67.79
51067;BME280;37112;45.892;-123.962;2023-04-25T00:12:29;102317.34;;;12.97;67.72
51067;BME280;37112;45.892;-123.962;2023-04-25T00:15:06;102313.34;;;12.98;67.32
51067;BME280;37112;45.892;-123.962;2023-04-25T00:17:44;102314.08;;;13.05;67.85
51067;BME280;37112;45.892;-123.962;2023-04-25T00:20:05;102316.65;;;13.10;67.08
51067;BME280;37112;45.892;-123.962;2023-04-25T00:22:32;102323.77;;;13.10;67.06
51067;BME280;37112;45.892;-123.962;2023-04-25T00:25:09;102319.48;;;13.07;66.83
51067;BME280;37112;45.892;-123.962;2023-04-25T00:27:46;102314.52;;;13.03;66.68
51067;BME280;37112;45.892;-123.962;2023-04-25T00:30:16;102311.44;;;13.01;66.89
51067;BME280;37112;45.892;-123.962;2023-04-25T00:32:51;102317.33;;;13.01;66.96
51067;BME280;37112;45.892;-123.962;2023-04-25T00:35:10;102318.12;;;12.99;66.35
51067;BME280;37112;45.892;-123.962;2023-04-25T00:37:54;102322.84;;;12.91;66.42
51067;BME280;37112;45.892;-123.962;2023-04-25T00:40:30;102323.45;;;12.86;66.74
51067;BME280;37112;45.892;-123.962;2023-04-25T00:42:58;102319.33;;;12.82;67.12
51067;BME280;37112;45.892;-123.962;2023-04-25T00:45:41;102315.36;;;12.77;67.02
51067;BME280;37112;45.892;-123.962;2023-04-25T00:48:17;102319.70;;;12.76;66.91
51067;BME280;37112;45.892;-123.962;2023-04-25T00:50:41;102326.93;;;12.74;67.44
51067;BME280;37112;45.892;-123.962;2023-04-25T00:53:08;102334.09;;;12.80;68.01
51067;BME280;37112;45.892;-123.962;2023-04-25T00:55:33;102338.73;;;12.84;68.10
51067;BME280;37112;45.892;-123.962;2023-04-25T00:58:10;102337.65;;;12.80;67.53
51067;BME280;37112;45.892;-123.962;2023-04-25T01:00:44;102338.02;;;12.66;67.04
51067;BME280;37112;45.892;-123.962;2023-04-25T01:03:22;102343.69;;;12.56;67.77
51067;BME280;37112;45.892;-123.962;2023-04-25T01:05:50;102347.17;;;12.54;67.64
51067;BME280;37112;45.892;-123.962;2023-04-25T01:08:21;102353.88;;;12.51;67.81
51067;BME280;37112;45.892;-123.962;2023-04-25T01:10:59;102356.71;;;12.41;66.83
51067;BME280;37112;45.892;-123.962;2023-04-25T01:13:35;102357.70;;;12.18;66.55
51067;BME280;37112;45.892;-123.962;2023-04-25T01:16:10;102352.39;;;12.06;67.73
51067;BME280;37112;45.892;-123.962;2023-04-25T01:18:33;102347.91;;;12.10;68.71
51067;BME280;37112;45.892;-123.962;2023-04-25T01:21:03;102346.85;;;12.13;68.41
51067;BME280;37112;45.892;-123.962;2023-04-25T01:23:41;102350.98;;;12.13;68.52
51067;BME280;37112;45.892;-123.962;2023-04-25T01:26:18;102353.80;;;11.99;67.64
51067;BME280;37112;45.892;-123.962;2023-04-25T01:28:52;102354.50;;;11.84;67.79
51067;BME280;37112;45.892;-123.962;2023-04-25T01:31:28;102358.86;;;11.73;68.37
51067;BME280;37112;45.892;-123.962;2023-04-25T01:34:03;102361.73;;;11.77;68.89
51067;BME280;37112;45.892;-123.962;2023-04-25T01:36:27;102364.98;;;11.76;68.15
51067;BME280;37112;45.892;-123.962;2023-04-25T01:39:03;102371.80;;;11.59;67.93
51067;BME280;37112;45.892;-123.962;2023-04-25T01:41:39;102375.05;;;11.58;69.11
51067;BME280;37112;45.892;-123.962;2023-04-25T01:44:14;102374.17;;;11.58;69.41
51067;BME280;37112;45.892;-123.962;2023-04-25T01:46:49;102373.19;;;11.48;69.37
51067;BME280;37112;45.892;-123.962;2023-04-25T01:49:24;102375.82;;;11.45;70.19
51067;BME280;37112;45.892;-123.962;2023-04-25T01:51:59;102378.98;;;11.42;69.99
51067;BME280;37112;45.892;-123.962;2023-04-25T01:54:24;102374.83;;;11.31;70.00
51067;BME280;37112;45.892;-123.962;2023-04-25T01:56:59;102374.79;;;11.36;71.09
51067;BME280;37112;45.892;-123.962;2023-04-25T01:59:35;102366.07;;;11.44;71.18
51067;BME280;37112;45.892;-123.962;2023-04-25T02:02:15;102357.66;;;11.49;71.44
51067;BME280;37112;45.892;-123.962;2023-04-25T02:04:45;102354.87;;;11.56;71.54
51067;BME280;37112;45.892;-123.962;2023-04-25T02:07:19;102357.26;;;11.50;70.48
51067;BME280;37112;45.892;-123.962;2023-04-25T02:09:53;102362.48;;;11.37;70.40
51067;BME280;37112;45.892;-123.962;2023-04-25T02:12:30;102365.16;;;11.25;70.43
51067;BME280;37112;45.892;-123.962;2023-04-25T02:14:54;102365.34;;;11.21;71.04
51067;BME280;37112;45.892;-123.962;2023-04-25T02:17:37;102361.71;;;11.14;70.78
51067;BME280;37112;45.892;-123.962;2023-04-25T02:20:13;102360.79;;;11.07;70.89
51067;BME280;37112;45.892;-123.962;2023-04-25T02:22:48;102356.42;;;11.05;71.36
51067;BME280;37112;45.892;-123.962;2023-04-25T02:25:22;102357.42;;;11.06;71.63
51067;BME280;37112;45.892;-123.962;2023-04-25T02:27:47;102361.23;;;11.05;71.81
51067;BME280;37112;45.892;-123.962;2023-04-25T02:30:23;102359.86;;;10.99;71.68
51067;BME280;37112;45.892;-123.962;2023-04-25T02:32:59;102359.44;;;10.93;71.57
51067;BME280;37112;45.892;-123.962;2023-04-25T02:35:27;102357.84;;;10.84;71.76
51067;BME280;37112;45.892;-123.962;2023-04-25T02:37:53;102357.88;;;10.75;71.85
51067;BME280;37112;45.892;-123.962;2023-04-25T02:40:23;102359.94;;;10.69;72.24
51067;BME280;37112;45.892;-123.962;2023-04-25T02:42:59;102360.14;;;10.59;72.14
51067;BME280;37112;45.892;-123.962;2023-04-25T02:45:23;102362.05;;;10.52;72.41
51067;BME280;37112;45.892;-123.962;2023-04-25T02:47:57;102359.27;;;10.46;72.71
51067;BME280;37112;45.892;-123.962;2023-04-25T02:50:25;102359.63;;;10.42;72.93
51067;BME280;37112;45.892;-123.962;2023-04-25T02:53:00;102358.43;;;10.36;73.01
51067;BME280;37112;45.892;-123.962;2023-04-25T02:55:24;102358.05;;;10.32;72.96
51067;BME280;37112;45.892;-123.962;2023-04-25T02:57:52;102365.04;;;10.30;73.24
51067;BME280;37112;45.892;-123.962;2023-04-25T03:00:30;102365.73;;;10.26;73.19
51067;BME280;37112;45.892;-123.962;2023-04-25T03:03:07;102371.00;;;10.23;73.42
51067;BME280;37112;45.892;-123.962;2023-04-25T03:05:31;102378.21;;;10.20;73.33
51067;BME280;37112;45.892;-123.962;2023-04-25T03:08:06;102379.48;;;10.15;73.40
51067;BME280;37112;45.892;-123.962;2023-04-25T03:10:41;102379.10;;;10.12;73.64
51067;BME280;37112;45.892;-123.962;2023-04-25T03:13:17;102387.38;;;10.08;73.73
51067;BME280;37112;45.892;-123.962;2023-04-25T03:15:53;102387.16;;;10.09;74.09
51067;BME280;37112;45.892;-123.962;2023-04-25T03:18:28;102386.17;;;10.07;74.21
51067;BME280;37112;45.892;-123.962;2023-04-25T03:21:02;102391.79;;;10.04;74.22
51067;BME280;37112;45.892;-123.962;2023-04-25T03:23:38;102398.21;;;10.03;74.51
51067;BME280;37112;45.892;-123.962;2023-04-25T03:26:14;102401.92;;;10.03;74.66
51067;BME280;37112;45.892;-123.962;2023-04-25T03:28:34;102407.66;;;10.02;74.73
51067;BME280;37112;45.892;-123.962;2023-04-25T03:31:09;102413.30;;;9.99;74.77
51067;BME280;37112;45.892;-123.962;2023-04-25T03:33:33;102414.26;;;9.97;74.76
51067;BME280;37112;45.892;-123.962;2023-04-25T03:36:09;102417.83;;;9.96;74.93
51067;BME280;37112;45.892;-123.962;2023-04-25T03:38:33;102421.93;;;9.95;75.17
51067;BME280;37112;45.892;-123.962;2023-04-25T03:41:11;102424.92;;;9.92;75.35
51067;BME280;37112;45.892;-123.962;2023-04-25T03:43:35;102423.52;;;9.86;75.28
51067;BME280;37112;45.892;-123.962;2023-04-25T03:46:13;102421.23;;;9.82;75.39
51067;BME280;37112;45.892;-123.962;2023-04-25T03:48:48;102418.24;;;9.76;75.24
51067;BME280;37112;45.892;-123.962;2023-04-25T03:51:26;102425.55;;;9.74;75.68
51067;BME280;37112;45.892;-123.962;2023-04-25T03:53:54;102426.32;;;9.73;76.44
51067;BME280;37112;45.892;-123.962;2023-04-25T03:56:17;102432.05;;;9.71;76.74
51067;BME280;37112;45.892;-123.962;2023-04-25T03:58:52;102430.44;;;9.67;76.74
51067;BME280;37112;45.892;-123.962;2023-04-25T04:01:27;102429.84;;;9.64;77.37
51067;BME280;37112;45.892;-123.962;2023-04-25T04:04:03;102434.41;;;9.60;77.97
51067;BME280;37112;45.892;-123.962;2023-04-25T04:06:27;102441.48;;;9.56;77.51
51067;BME280;37112;45.892;-123.962;2023-04-25T04:09:04;102441.24;;;9.53;77.96
51067;BME280;37112;45.892;-123.962;2023-04-25T04:11:42;102443.36;;;9.48;78.91
51067;BME280;37112;45.892;-123.962;2023-04-25T04:14:10;102446.15;;;9.44;78.90
51067;BME280;37112;45.892;-123.962;2023-04-25T04:16:39;102446.04;;;9.43;78.94
51067;BME280;37112;45.892;-123.962;2023-04-25T04:19:05;102444.91;;;9.39;78.83
51067;BME280;37112;45.892;-123.962;2023-04-25T04:21:40;102446.59;;;9.37;78.77
51067;BME280;37112;45.892;-123.962;2023-04-25T04:24:14;102450.11;;;9.38;79.34
51067;BME280;37112;45.892;-123.962;2023-04-25T04:26:39;102454.88;;;9.38;79.33
51067;BME280;37112;45.892;-123.962;2023-04-25T04:29:16;102457.14;;;9.39;79.38
51067;BME280;37112;45.892;-123.962;2023-04-25T04:31:59;102461.35;;;9.40;79.50
51067;BME280;37112;45.892;-123.962;2023-04-25T04:34:26;102462.10;;;9.39;79.67
51067;BME280;37112;45.892;-123.962;2023-04-25T04:37:01;102463.97;;;9.37;79.74
51067;BME280;37112;45.892;-123.962;2023-04-25T04:39:30;102474.52;;;9.34;79.79
51067;BME280;37112;45.892;-123.962;2023-04-25T04:42:07;102475.63;;;9.33;79.74
51067;BME280;37112;45.892;-123.962;2023-04-25T04:44:42;102480.73;;;9.34;79.92
51067;BME280;37112;45.892;-123.962;2023-04-25T04:47:19;102478.64;;;9.33;80.22
51067;BME280;37112;45.892;-123.962;2023-04-25T04:49:56;102475.08;;;9.33;80.27
51067;BME280;37112;45.892;-123.962;2023-04-25T04:52:34;102475.20;;;9.35;80.36
51067;BME280;37112;45.892;-123.962;2023-04-25T04:55:11;102486.33;;;9.36;80.33
51067;BME280;37112;45.892;-123.962;2023-04-25T04:57:55;102490.10;;;9.35;80.20
51067;BME280;37112;45.892;-123.962;2023-04-25T05:00:33;102491.88;;;9.35;80.48
51067;BME280;37112;45.892;-123.962;2023-04-25T05:03:15;102493.46;;;9.40;80.74
51067;BME280;37112;45.892;-123.962;2023-04-25T05:05:49;102488.08;;;9.42;80.72
51067;BME280;37112;45.892;-123.962;2023-04-25T05:08:22;102488.52;;;9.45;80.69
51067;BME280;37112;45.892;-123.962;2023-04-25T05:10:57;102486.46;;;9.47;80.87
51067;BME280;37112;45.892;-123.962;2023-04-25T05:13:46;102479.10;;;9.51;80.80
51067;BME280;37112;45.892;-123.962;2023-04-25T05:16:18;102479.84;;;9.54;80.99
51067;BME280;37112;45.892;-123.962;2023-04-25T05:19:01;102474.83;;;9.56;80.89
51067;BME280;37112;45.892;-123.962;2023-04-25T05:21:25;102468.77;;;9.57;80.94
51067;BME280;37112;45.892;-123.962;2023-04-25T05:24:09;102469.98;;;9.58;80.97
51067;BME280;37112;45.892;-123.962;2023-04-25T05:26:42;102470.54;;;9.57;80.75
51067;BME280;37112;45.892;-123.962;2023-04-25T05:29:17;102473.95;;;9.56;80.76
51067;BME280;37112;45.892;-123.962;2023-04-25T05:31:51;102479.42;;;9.56;80.81
51067;BME280;37112;45.892;-123.962;2023-04-25T05:34:26;102492.13;;;9.53;80.52
51067;BME280;37112;45.892;-123.962;2023-04-25T05:37:04;102496.60;;;9.52;80.57
51067;BME280;37112;45.892;-123.962;2023-04-25T05:39:28;102498.69;;;9.53;80.78
51067;BME280;37112;45.892;-123.962;2023-04-25T05:42:34;102498.89;;;9.53;80.78
51067;BME280;37112;45.892;-123.962;2023-04-25T05:45:08;102495.57;;;9.51;80.88
51067;BME280;37112;45.892;-123.962;2023-04-25T05:47:41;102486.13;;;9.52;80.92
51067;BME280;37112;45.892;-123.962;2023-04-25T05:50:13;102485.52;;;9.49;80.84
51067;BME280;37112;45.892;-123.962;2023-04-25T05:53:04;102486.67;;;9.46;80.56
51067;BME280;37112;45.892;-123.962;2023-04-25T05:55:37;102483.48;;;9.42;80.46
51067;BME280;37112;45.892;-123.962;2023-04-25T05:58:15;102471.99;;;9.36;80.50
51067;BME280;37112;45.892;-123.962;2023-04-25T06:00:41;102470.44;;;9.30;80.42
51067;BME280;37112;45.892;-123.962;2023-04-25T06:03:16;102473.15;;;9.23;80.60
51067;BME280;37112;45.892;-123.962;2023-04-25T06:05:52;102475.77;;;9.18;80.90
51067;BME280;37112;45.892;-123.962;2023-04-25T06:08:15;102484.19;;;9.15;80.96
51067;BME280;37112;45.892;-123.962;2023-04-25T06:10:50;102485.40;;;9.16;81.22
51067;BME280;37112;45.892;-123.962;2023-04-25T06:13:24;102464.38;;;9.14;81.34
51067;BME280;37112;45.892;-123.962;2023-04-25T06:15:59;102458.30;;;9.11;81.33
51067;BME280;37112;45.892;-123.962;2023-04-25T06:18:20;102464.34;;;9.10;81.57
51067;BME280;37112;45.892;-123.962;2023-04-25T06:20:55;102467.46;;;9.07;81.55
51067;BME280;37112;45.892;-123.962;2023-04-25T06:23:19;102466.64;;;9.05;81.66
51067;BME280;37112;45.892;-123.962;2023-04-25T06:25:53;102467.36;;;9.05;81.75
51067;BME280;37112;45.892;-123.962;2023-04-25T06:28:21;102469.86;;;9.04;82.08
51067;BME280;37112;45.892;-123.962;2023-04-25T06:30:57;102473.02;;;9.05;82.22
51067;BME280;37112;45.892;-123.962;2023-04-25T06:33:27;102473.52;;;9.06;82.16
51067;BME280;37112;45.892;-123.962;2023-04-25T06:36:03;102475.20;;;9.09;82.43
51067;BME280;37112;45.892;-123.962;2023-04-25T06:38:38;102479.76;;;9.11;82.65
51067;BME280;37112;45.892;-123.962;2023-04-25T06:41:02;102482.28;;;9.14;82.77
51067;BME280;37112;45.892;-123.962;2023-04-25T06:43:19;102482.37;;;9.16;82.74
51067;BME280;37112;45.892;-123.962;2023-04-25T06:45:53;102491.20;;;9.18;82.61
51067;BME280;37112;45.892;-123.962;2023-04-25T06:48:18;102489.79;;;9.17;82.41
51067;BME280;37112;45.892;-123.962;2023-04-25T06:50:53;102495.30;;;9.17;82.39
51067;BME280;37112;45.892;-123.962;2023-04-25T06:53:28;102492.14;;;9.16;82.33
51067;BME280;37112;45.892;-123.962;2023-04-25T06:56:03;102492.92;;;9.14;82.42
51067;BME280;37112;45.892;-123.962;2023-04-25T06:58:26;102487.15;;;9.12;82.29
51067;BME280;37112;45.892;-123.962;2023-04-25T07:01:02;102486.77;;;9.13;82.51
51067;BME280;37112;45.892;-123.962;2023-04-25T07:03:36;102476.66;;;9.13;82.66
51067;BME280;37112;45.892;-123.962;2023-04-25T07:06:11;102471.02;;;9.12;82.61
51067;BME280;37112;45.892;-123.962;2023-04-25T07:08:47;102472.30;;;9.11;82.65
51067;BME280;37112;45.892;-123.962;2023-04-25T07:11:23;102478.70;;;9.10;82.83
51067;BME280;37112;45.892;-123.962;2023-04-25T07:13:59;102487.20;;;9.11;83.14
51067;BME280;37112;45.892;-123.962;2023-04-25T07:16:34;102479.90;;;9.12;83.14
51067;BME280;37112;45.892;-123.962;2023-04-25T07:19:09;102470.27;;;9.13;83.26
51067;BME280;37112;45.892;-123.962;2023-04-25T07:21:44;102465.83;;;9.14;83.33
51067;BME280;37112;45.892;-123.962;2023-04-25T07:24:18;102460.82;;;9.15;83.57
51067;BME280;37112;45.892;-123.962;2023-04-25T07:26:55;102459.95;;;9.15;83.63
51067;BME280;37112;45.892;-123.962;2023-04-25T07:29:32;102459.42;;;9.14;83.58
51067;BME280;37112;45.892;-123.962;2023-04-25T07:31:58;102463.56;;;9.12;83.57
51067;BME280;37112;45.892;-123.962;2023-04-25T07:34:21;102457.44;;;9.10;83.40
51067;BME280;37112;45.892;-123.962;2023-04-25T07:36:56;102461.29;;;9.06;83.31
51067;BME280;37112;45.892;-123.962;2023-04-25T07:39:32;102470.06;;;9.04;83.57
51067;BME280;37112;45.892;-123.962;2023-04-25T07:42:07;102475.63;;;9.01;83.60
51067;BME280;37112;45.892;-123.962;2023-04-25T07:44:41;102472.94;;;8.97;83.78
51067;BME280;37112;45.892;-123.962;2023-04-25T07:47:09;102471.77;;;8.95;83.77
51067;BME280;37112;45.892;-123.962;2023-04-25T07:49:39;102465.67;;;8.92;83.80
51067;BME280;37112;45.892;-123.962;2023-04-25T07:52:14;102461.54;;;8.88;83.98
51067;BME280;37112;45.892;-123.962;2023-04-25T07:54:49;102455.65;;;8.84;84.04
51067;BME280;37112;45.892;-123.962;2023-04-25T07:57:24;102447.90;;;8.83;84.23
51067;BME280;37112;45.892;-123.962;2023-04-25T08:00:00;102456.36;;;8.84;84.43
51067;BME280;37112;45.892;-123.962;2023-04-25T08:02:35;102463.04;;;8.85;84.56
51067;BME280;37112;45.892;-123.962;2023-04-25T08:05:12;102452.23;;;8.85;84.60
51067;BME280;37112;45.892;-123.962;2023-04-25T08:07:52;102450.23;;;8.87;84.84
51067;BME280;37112;45.892;-123.962;2023-04-25T08:10:29;102447.45;;;8.85;84.79
51067;BME280;37112;45.892;-123.962;2023-04-25T08:13:05;102448.21;;;8.84;84.89
51067;BME280;37112;45.892;-123.962;2023-04-25T08:15:41;102456.59;;;8.82;84.81
51067;BME280;37112;45.892;-123.962;2023-04-25T08:18:16;102465.11;;;8.82;85.11
51067;BME280;37112;45.892;-123.962;2023-04-25T08:20:53;102474.42;;;8.84;85.12
51067;BME280;37112;45.892;-123.962;2023-04-25T08:23:30;102473.29;;;8.86;85.29
51067;BME280;37112;45.892;-123.962;2023-04-25T08:26:05;102476.27;;;8.87;85.24
51067;BME280;37112;45.892;-123.962;2023-04-25T08:28:28;102478.56;;;8.88;85.25
51067;BME280;37112;45.892;-123.962;2023-04-25T08:31:03;102484.69;;;8.90;85.43
51067;BME280;37112;45.892;-123.962;2023-04-25T08:33:42;102486.02;;;8.92;85.51
51067;BME280;37112;45.892;-123.962;2023-04-25T08:36:20;102483.85;;;8.93;85.59
51067;BME280;37112;45.892;-123.962;2023-04-25T08:38:58;102489.46;;;8.96;85.49
51067;BME280;37112;45.892;-123.962;2023-04-25T08:41:35;102484.30;;;8.97;85.60
51067;BME280;37112;45.892;-123.962;2023-04-25T08:44:13;102476.66;;;8.97;85.69
51067;BME280;37112;45.892;-123.962;2023-04-25T08:46:47;102467.09;;;8.97;85.51
51067;BME280;37112;45.892;-123.962;2023-04-25T08:49:23;102459.86;;;8.96;85.48
51067;BME280;37112;45.892;-123.962;2023-04-25T08:52:02;102460.77;;;8.95;85.65
51067;BME280;37112;45.892;-123.962;2023-04-25T08:54:33;102463.83;;;8.93;85.60
51067;BME280;37112;45.892;-123.962;2023-04-25T08:57:11;102458.19;;;8.93;85.76
51067;BME280;37112;45.892;-123.962;2023-04-25T08:59:47;102450.43;;;8.92;85.54
51067;BME280;37112;45.892;-123.962;2023-04-25T09:02:23;102440.92;;;8.90;85.58
51067;BME280;37112;45.892;-123.962;2023-04-25T09:05:01;102436.92;;;8.88;85.57
51067;BME280;37112;45.892;-123.962;2023-04-25T09:07:26;102436.25;;;8.86;85.83
51067;BME280;37112;45.892;-123.962;2023-04-25T09:10:01;102431.13;;;8.86;85.91
51067;BME280;37112;45.892;-123.962;2023-04-25T09:12:38;102427.61;;;8.85;85.86
51067;BME280;37112;45.892;-123.962;2023-04-25T09:15:16;102422.13;;;8.85;86.02
51067;BME280;37112;45.892;-123.962;2023-04-25T09:17:57;102425.84;;;8.85;86.04
51067;BME280;37112;45.892;-123.962;2023-04-25T09:20:43;102429.41;;;8.85;86.21
51067;BME280;37112;45.892;-123.962;2023-04-25T09:23:38;102433.09;;;8.86;86.14
51067;BME280;37112;45.892;-123.962;2023-04-25T09:26:20;102427.33;;;8.83;85.93
51067;BME280;37112;45.892;-123.962;2023-04-25T09:29:07;102426.90;;;8.81;85.93
51067;BME280;37112;45.892;-123.962;2023-04-25T09:31:42;102433.64;;;8.80;86.31
51067;BME280;37112;45.892;-123.962;2023-04-25T09:34:17;102430.28;;;8.80;86.48
51067;BME280;37112;45.892;-123.962;2023-04-25T09:36:40;102429.92;;;8.80;86.41
51067;BME280;37112;45.892;-123.962;2023-04-25T09:39:18;102430.41;;;8.81;86.70
51067;BME280;37112;45.892;-123.962;2023-04-25T09:41:59;102429.30;;;8.82;86.60
51067;BME280;37112;45.892;-123.962;2023-04-25T09:44:35;102431.93;;;8.83;86.72
51067;BME280;37112;45.892;-123.962;2023-04-25T09:47:12;102433.68;;;8.84;86.87
51067;BME280;37112;45.892;-123.962;2023-04-25T09:49:47;102433.95;;;8.86;87.10
51067;BME280;37112;45.892;-123.962;2023-04-25T09:52:22;102438.30;;;8.89;87.24
51067;BME280;37112;45.892;-123.962;2023-04-25T09:54:56;102439.86;;;8.90;87.24
51067;BME280;37112;45.892;-123.962;2023-04-25T09:57:32;102445.15;;;8.91;87.20
51067;BME280;37112;45.892;-123.962;2023-04-25T10:00:03;102446.89;;;8.91;87.15
51067;BME280;37112;45.892;-123.962;2023-04-25T10:02:26;102447.78;;;8.91;87.07
51067;BME280;37112;45.892;-123.962;2023-04-25T10:04:52;102456.54;;;8.90;87.00
51067;BME280;37112;45.892;-123.962;2023-04-25T10:07:20;102456.90;;;8.89;87.12
51067;BME280;37112;45.892;-123.962;2023-04-25T10:10:01;102451.80;;;8.88;87.04
51067;BME280;37112;45.892;-123.962;2023-04-25T10:12:38;102455.70;;;8.88;87.10
51067;BME280;37112;45.892;-123.962;2023-04-25T10:15:08;102458.91;;;8.87;87.16
51067;BME280;37112;45.892;-123.962;2023-04-25T10:17:44;102458.44;;;8.85;86.92
51067;BME280;37112;45.892;-123.962;2023-04-25T10:20:20;102457.08;;;8.84;87.08
51067;BME280;37112;45.892;-123.962;2023-04-25T10:23:01;102460.80;;;8.84;87.18
51067;BME280;37112;45.892;-123.962;2023-04-25T10:25:38;102469.63;;;8.84;87.35
51067;BME280;37112;45.892;-123.962;2023-04-25T10:28:16;102468.89;;;8.85;87.46
51067;BME280;37112;45.892;-123.962;2023-04-25T10:31:06;102470.12;;;8.85;87.47
51067;BME280;37112;45.892;-123.962;2023-04-25T10:33:43;102476.58;;;8.83;87.35
51067;BME280;37112;45.892;-123.962;2023-04-25T10:36:21;102483.79;;;8.79;87.23
51067;BME280;37112;45.892;-123.962;2023-04-25T10:39:02;102482.27;;;8.77;87.40
51067;BME280;37112;45.892;-123.962;2023-04-25T10:41:34;102486.87;;;8.77;87.25
51067;BME280;37112;45.892;-123.962;2023-04-25T10:44:20;102492.03;;;8.76;87.46
51067;BME280;37112;45.892;-123.962;2023-04-25T10:46:57;102491.64;;;8.77;87.58
51067;BME280;37112;45.892;-123.962;2023-04-25T10:49:37;102497.45;;;8.78;87.84
51067;BME280;37112;45.892;-123.962;2023-04-25T10:52:25;102494.93;;;8.80;87.74
51067;BME280;37112;45.892;-123.962;2023-04-25T10:54:55;102494.52;;;8.81;87.83
51067;BME280;37112;45.892;-123.962;2023-04-25T10:57:36;102488.48;;;8.82;87.81
51067;BME280;37112;45.892;-123.962;2023-04-25T11:00:16;102480.86;;;8.82;87.82
51067;BME280;37112;45.892;-123.962;2023-04-25T11:03:04;102478.05;;;8.82;87.79
51067;BME280;37112;45.892;-123.962;2023-04-25T11:05:43;102477.88;;;8.82;87.87
51067;BME280;37112;45.892;-123.962;2023-04-25T11:08:27;102482.30;;;8.82;87.87
51067;BME280;37112;45.892;-123.962;2023-04-25T11:11:07;102479.48;;;8.81;87.90
51067;BME280;37112;45.892;-123.962;2023-04-25T11:13:42;102478.23;;;8.82;87.77
51067;BME280;37112;45.892;-123.962;2023-04-25T11:16:14;102475.41;;;8.81;87.69
51067;BME280;37112;45.892;-123.962;2023-04-25T11:19:00;102474.73;;;8.80;87.82
51067;BME280;37112;45.892;-123.962;2023-04-25T11:21:24;102478.27;;;8.80;87.88
51067;BME280;37112;45.892;-123.962;2023-04-25T11:24:12;102477.39;;;8.79;87.72
51067;BME280;37112;45.892;-123.962;2023-04-25T11:26:49;102475.45;;;8.80;87.99
51067;BME280;37112;45.892;-123.962;2023-04-25T11:29:29;102476.15;;;8.80;88.12
51067;BME280;37112;45.892;-123.962;2023-04-25T11:31:55;102480.37;;;8.81;88.05
51067;BME280;37112;45.892;-123.962;2023-04-25T11:34:33;102483.02;;;8.81;88.00
51067;BME280;37112;45.892;-123.962;2023-04-25T11:37:08;102488.19;;;8.81;87.86
51067;BME280;37112;45.892;-123.962;2023-04-25T11:39:34;102485.59;;;8.78;87.75
51067;BME280;37112;45.892;-123.962;2023-04-25T11:42:10;102488.98;;;8.77;87.85
51067;BME280;37112;45.892;-123.962;2023-04-25T11:44:45;102483.70;;;8.76;87.77
51067;BME280;37112;45.892;-123.962;2023-04-25T11:47:09;102481.06;;;8.76;87.85
51067;BME280;37112;45.892;-123.962;2023-04-25T11:49:58;102482.13;;;8.76;87.93
51067;BME280;37112;45.892;-123.962;2023-04-25T11:52:43;102479.63;;;8.76;88.04
51067;BME280;37112;45.892;-123.962;2023-04-25T11:55:19;102481.21;;;8.77;88.10
51067;BME280;37112;45.892;-123.962;2023-04-25T11:57:55;102476.59;;;8.77;88.14
51067;BME280;37112;45.892;-123.962;2023-04-25T12:00:30;102475.58;;;8.76;88.02
51067;BME280;37112;45.892;-123.962;2023-04-25T12:02:59;102474.36;;;8.75;88.19
51067;BME280;37112;45.892;-123.962;2023-04-25T12:05:34;102477.91;;;8.75;88.32
51067;BME280;37112;45.892;-123.962;2023-04-25T12:08:17;102474.52;;;8.75;88.27
51067;BME280;37112;45.892;-123.962;2023-04-25T12:10:53;102474.21;;;8.74;88.06
51067;BME280;37112;45.892;-123.962;2023-04-25T12:13:29;102473.67;;;8.74;88.23
51067;BME280;37112;45.892;-123.962;2023-04-25T12:16:05;102470.48;;;8.75;88.32
51067;BME280;37112;45.892;-123.962;2023-04-25T12:18:40;102469.09;;;8.74;88.22
51067;BME280;37112;45.892;-123.962;2023-04-25T12:21:18;102465.70;;;8.75;88.47
51067;BME280;37112;45.892;-123.962;2023-04-25T12:23:55;102458.73;;;8.76;88.57
51067;BME280;37112;45.892;-123.962;2023-04-25T12:26:49;102455.36;;;8.77;88.61
51067;BME280;37112;45.892;-123.962;2023-04-25T12:29:28;102455.41;;;8.75;88.24
51067;BME280;37112;45.892;-123.962;2023-04-25T12:32:19;102453.09;;;8.70;87.92
51067;BME280;37112;45.892;-123.962;2023-04-25T12:34:54;102454.59;;;8.68;88.10
51067;BME280;37112;45.892;-123.962;2023-04-25T12:37:22;102456.10;;;8.65;87.80
51067;BME280;37112;45.892;-123.962;2023-04-25T12:39:59;102459.86;;;8.63;88.02
51067;BME280;37112;45.892;-123.962;2023-04-25T12:42:35;102458.65;;;8.62;88.14
51067;BME280;37112;45.892;-123.962;2023-04-25T12:45:11;102455.48;;;8.61;88.23
51067;BME280;37112;45.892;-123.962;2023-04-25T12:47:46;102456.81;;;8.59;88.00
51067;BME280;37112;45.892;-123.962;2023-04-25T12:50:20;102452.10;;;8.57;87.97
51067;BME280;37112;45.892;-123.962;2023-04-25T12:52:54;102448.40;;;8.55;87.98
51067;BME280;37112;45.892;-123.962;2023-04-25T12:55:30;102450.33;;;8.57;88.31
51067;BME280;37112;45.892;-123.962;2023-04-25T12:58:05;102449.21;;;8.59;88.43
51067;BME280;37112;45.892;-123.962;2023-04-25T13:00:40;102447.13;;;8.57;88.26
51067;BME280;37112;45.892;-123.962;2023-04-25T13:03:16;102455.84;;;8.56;88.31
51067;BME280;37112;45.892;-123.962;2023-04-25T13:05:51;102457.63;;;8.55;88.02